Time;durP1;ratioP1;P1;durP2;ratioP2;P2;SDS_P1;SDS_P2;PMS_P1;PMS_P2;Temp;Humidity;BMP_temperature;BMP_pressure;BME280_temperature;BME280_humidity;BME280_pressure;Samples;Min_cycle;Max_cycle;Signal;HPM_P1;HPM_P2
2023/10/28 00:00:48;;;;;;;1.23;0.90;;;10.90;83.60;;;;;;4995500;28;20448;-70
2023/10/28 00:03:13;;;;;;;2.80;0.90;;;10.90;83.40;;;;;;4995365;28;20222;-71
2023/10/28 00:05:39;;;;;;;1.70;0.93;;;10.90;83.40;;;;;;4992392;28;20230;-70
2023/10/28 00:08:05;;;;;;;1.93;0.90;;;10.90;83.40;;;;;;4993980;28;20256;-70
2023/10/28 00:10:32;;;;;;;1.00;0.67;;;10.90;83.30;;;;;;4994281;28;20453;-69
2023/10/28 00:12:59;;;;;;;1.40;0.90;;;10.90;83.40;;;;;;4993085;28;20484;-69
2023/10/28 00:15:25;;;;;;;1.80;1.13;;;10.90;83.30;;;;;;4989577;28;20980;-70
2023/10/28 00:17:51;;;;;;;1.73;0.87;;;10.90;83.40;;;;;;4987288;28;20426;-68
2023/10/28 00:20:17;;;;;;;3.10;1.10;;;10.90;83.40;;;;;;4991457;28;20424;-70
2023/10/28 00:22:46;;;;;;;2.23;0.90;;;10.90;83.40;;;;;;4996122;28;20181;-69
2023/10/28 00:25:16;;;;;;;1.73;1.00;;;10.90;83.60;;;;;;4990786;28;20914;-69
2023/10/28 00:27:43;;;;;;;1.27;0.80;;;10.90;83.30;;;;;;4991543;28;20537;-68
2023/10/28 00:30:12;;;;;;;1.47;0.80;;;10.90;83.00;;;;;;4991393;28;20795;-68
2023/10/28 00:32:37;;;;;;;2.20;1.00;;;10.90;83.00;;;;;;4992537;28;20418;-68
2023/10/28 00:35:06;;;;;;;1.20;0.80;;;10.90;83.30;;;;;;4991332;28;20426;-70
2023/10/28 00:37:31;;;;;;;2.23;0.90;;;10.90;82.80;;;;;;4984525;28;20214;-69
2023/10/28 00:39:57;;;;;;;1.47;0.90;;;10.90;82.80;;;;;;4990339;28;20449;-69
2023/10/28 00:42:23;;;;;;;0.83;0.70;;;10.90;83.00;;;;;;4991989;28;20618;-68
2023/10/28 00:44:50;;;;;;;3.47;0.80;;;10.90;82.80;;;;;;4991975;28;20288;-69
2023/10/28 00:47:16;;;;;;;1.60;1.00;;;10.90;83.00;;;;;;4986463;28;20457;-69
2023/10/28 00:49:43;;;;;;;0.90;0.70;;;10.90;82.80;;;;;;4992023;28;20449;-69
2023/10/28 00:52:09;;;;;;;2.67;0.73;;;10.80;82.80;;;;;;4992303;28;20421;-70
2023/10/28 00:54:35;;;;;;;1.30;0.70;;;10.80;82.80;;;;;;4992678;28;20414;-69
2023/10/28 00:57:01;;;;;;;2.03;0.90;;;10.80;82.70;;;;;;4984823;28;20489;-68
2023/10/28 00:59:28;;;;;;;2.00;0.80;;;10.80;82.70;;;;;;4991191;28;20429;-69
2023/10/28 01:01:54;;;;;;;7.33;1.10;;;10.80;82.40;;;;;;4991686;28;20453;-69
2023/10/28 01:04:20;;;;;;;2.73;0.80;;;10.80;82.50;;;;;;4991576;28;20496;-68
2023/10/28 01:06:46;;;;;;;0.80;0.60;;;10.80;82.40;;;;;;4986301;28;20454;-68
2023/10/28 01:09:12;;;;;;;1.63;0.80;;;10.80;82.20;;;;;;4990010;28;20505;-68
2023/10/28 01:11:40;;;;;;;1.73;0.87;;;10.80;82.40;;;;;;4991830;28;20504;-69
2023/10/28 01:14:07;;;;;;;3.03;0.90;;;10.80;82.40;;;;;;4991795;28;20191;-69
2023/10/28 01:16:33;;;;;;;2.90;0.90;;;10.80;82.20;;;;;;4990690;28;20452;-69
2023/10/28 01:18:59;;;;;;;1.87;0.90;;;10.80;82.20;;;;;;4991168;28;20501;-67
2023/10/28 01:21:26;;;;;;;1.67;0.83;;;10.80;82.10;;;;;;4986075;28;20418;-69
2023/10/28 01:23:52;;;;;;;0.93;0.70;;;10.90;82.20;;;;;;4988966;28;21027;-69
2023/10/28 01:26:18;;;;;;;1.30;0.70;;;10.80;82.20;;;;;;4986141;28;20492;-68
2023/10/28 01:28:44;;;;;;;1.20;1.00;;;10.80;82.20;;;;;;4989557;28;20476;-68
2023/10/28 01:31:10;;;;;;;2.97;0.80;;;10.80;81.90;;;;;;4987528;28;20446;-70
2023/10/28 01:33:35;;;;;;;1.90;1.10;;;10.80;81.80;;;;;;4995387;28;20430;-70
2023/10/28 01:36:01;;;;;;;3.40;1.30;;;10.90;81.70;;;;;;4984388;28;20238;-70
2023/10/28 01:38:27;;;;;;;1.37;0.77;;;10.90;81.80;;;;;;4990074;28;20232;-70
2023/10/28 01:40:56;;;;;;;5.43;1.10;;;10.90;81.70;;;;;;4989396;28;20274;-69
2023/10/28 01:43:22;;;;;;;1.50;0.93;;;10.80;81.70;;;;;;4990913;28;20509;-68
2023/10/28 01:45:48;;;;;;;1.40;0.97;;;10.90;81.80;;;;;;4984686;28;20494;-70
2023/10/28 01:48:14;;;;;;;1.83;1.00;;;10.90;81.80;;;;;;4988585;28;20509;-70
2023/10/28 01:50:40;;;;;;;2.37;1.30;;;10.80;82.10;;;;;;4988759;28;20277;-70
2023/10/28 01:53:05;;;;;;;2.33;0.93;;;10.80;81.90;;;;;;4989752;28;20579;-69
2023/10/28 01:55:32;;;;;;;1.10;0.80;;;10.80;82.20;;;;;;4987714;28;20472;-69
2023/10/28 01:57:58;;;;;;;2.03;1.03;;;10.80;82.40;;;;;;4987850;28;20531;-69
2023/10/28 02:00:26;;;;;;;1.70;0.87;;;10.80;82.40;;;;;;4990839;28;20422;-70
2023/10/28 02:02:52;;;;;;;1.70;1.00;;;10.80;82.40;;;;;;4990809;28;20445;-70
2023/10/28 02:05:18;;;;;;;3.30;1.10;;;10.80;82.40;;;;;;4988795;28;20620;-70
2023/10/28 02:07:45;;;;;;;2.73;1.00;;;10.80;82.40;;;;;;4987927;28;20198;-69
2023/10/28 02:10:11;;;;;;;1.23;0.70;;;10.80;82.40;;;;;;4989333;28;20421;-70
2023/10/28 02:12:37;;;;;;;9.00;1.27;;;10.70;82.40;;;;;;4989256;28;20457;-70
2023/10/28 02:15:08;;;;;;;4.13;1.07;;;10.80;82.50;;;;;;4988467;28;20186;-70
2023/10/28 02:17:35;;;;;;;1.67;0.90;;;10.70;82.50;;;;;;4987132;28;20197;-70
2023/10/28 02:20:04;;;;;;;2.73;1.23;;;10.70;82.50;;;;;;4988236;28;20488;-70
2023/10/28 02:22:31;;;;;;;2.07;1.00;;;10.80;82.50;;;;;;4989822;28;20422;-70
2023/10/28 02:24:57;;;;;;;3.10;0.97;;;10.80;82.40;;;;;;4990180;28;20469;-69
2023/10/28 02:27:23;;;;;;;3.83;1.20;;;10.80;82.50;;;;;;4986468;28;20461;-70
2023/10/28 02:29:49;;;;;;;2.37;0.80;;;10.80;82.50;;;;;;4989538;28;20591;-70
2023/10/28 02:32:14;;;;;;;2.27;1.30;;;10.70;82.50;;;;;;4988007;28;20218;-69
2023/10/28 02:34:41;;;;;;;2.00;1.00;;;10.70;82.40;;;;;;4989928;28;20190;-69
2023/10/28 02:37:07;;;;;;;3.57;1.20;;;10.70;82.50;;;;;;4987415;28;20206;-69
2023/10/28 02:39:33;;;;;;;5.03;1.30;;;10.70;82.50;;;;;;4988902;28;20418;-67
2023/10/28 02:41:58;;;;;;;3.23;1.10;;;10.60;82.70;;;;;;4985769;28;20557;-69
2023/10/28 02:44:24;;;;;;;3.17;1.00;;;10.60;82.70;;;;;;4989857;28;20457;-68
2023/10/28 02:46:50;;;;;;;2.53;1.40;;;10.70;82.20;;;;;;4987292;28;20214;-69
2023/10/28 02:49:15;;;;;;;1.70;1.10;;;10.80;81.90;;;;;;4989247;28;20616;-69
2023/10/28 02:51:41;;;;;;;2.63;1.27;;;10.80;81.80;;;;;;4988883;28;20232;-70
2023/10/28 02:54:07;;;;;;;3.10;1.43;;;10.80;81.50;;;;;;4990245;28;20187;-69
2023/10/28 02:56:32;;;;;;;5.00;1.40;;;10.80;81.20;;;;;;4982104;28;20453;-68
2023/10/28 02:58:58;;;;;;;3.90;1.70;;;10.80;80.50;;;;;;4989781;28;20194;-67
2023/10/28 03:01:23;;;;;;;4.10;1.47;;;10.90;80.20;;;;;;4991263;28;20191;-70
2023/10/28 03:03:49;;;;;;;4.27;1.53;;;10.90;80.00;;;;;;4994576;28;20285;-68
2023/10/28 03:06:15;;;;;;;3.97;1.70;;;10.90;80.20;;;;;;4988038;28;20210;-69
2023/10/28 03:08:41;;;;;;;4.90;1.60;;;10.90;80.20;;;;;;4994999;28;20187;-68
2023/10/28 03:11:07;;;;;;;3.67;1.50;;;10.90;80.00;;;;;;4995363;28;20664;-68
2023/10/28 03:13:32;;;;;;;7.67;1.40;;;11.00;79.70;;;;;;4994994;28;20429;-69
2023/10/28 03:15:58;;;;;;;8.17;1.70;;;11.00;79.60;;;;;;4993084;28;20281;-72
2023/10/28 03:18:24;;;;;;;7.90;1.90;;;11.00;79.70;;;;;;4993177;28;20212;-69
2023/10/28 03:20:50;;;;;;;2.53;1.33;;;11.00;79.90;;;;;;4993774;28;20179;-69
2023/10/28 03:23:16;;;;;;;6.20;1.80;;;11.00;80.00;;;;;;4993790;28;20214;-68
2023/10/28 03:25:42;;;;;;;10.87;1.50;;;11.00;80.00;;;;;;4988263;28;20564;-70
2023/10/28 03:28:08;;;;;;;4.00;1.50;;;10.90;80.20;;;;;;4992355;28;20926;-68
2023/10/28 03:30:34;;;;;;;8.60;1.70;;;10.90;80.30;;;;;;4992980;28;20210;-69
2023/10/28 03:33:00;;;;;;;10.97;1.63;;;10.90;80.30;;;;;;4992822;28;20433;-70
2023/10/28 03:35:27;;;;;;;4.70;1.90;;;10.90;80.50;;;;;;4989807;28;20996;-69
2023/10/28 03:37:52;;;;;;;3.30;1.67;;;10.90;80.60;;;;;;4992267;28;20429;-69
2023/10/28 03:40:18;;;;;;;3.13;1.43;;;10.80;80.80;;;;;;4993466;28;20429;-69
2023/10/28 03:42:44;;;;;;;10.40;1.50;;;10.90;80.80;;;;;;4993461;28;20182;-69
2023/10/28 03:45:10;;;;;;;6.13;1.50;;;10.90;80.80;;;;;;4992172;28;20229;-69
2023/10/28 03:47:36;;;;;;;6.37;2.27;;;10.90;80.50;;;;;;4991433;28;20445;-69
2023/10/28 03:50:02;;;;;;;3.60;1.77;;;10.90;80.50;;;;;;4993187;28;20182;-71
2023/10/28 03:52:28;;;;;;;4.67;1.40;;;11.00;80.30;;;;;;4992672;28;21006;-70
2023/10/28 03:54:53;;;;;;;5.33;1.63;;;11.00;80.20;;;;;;4991057;28;20436;-69
2023/10/28 03:57:19;;;;;;;3.20;1.50;;;11.00;80.20;;;;;;4990782;28;20275;-69
2023/10/28 03:59:46;;;;;;;3.40;1.27;;;11.00;80.00;;;;;;4991660;28;20222;-69
2023/10/28 04:02:12;;;;;;;2.80;1.00;;;11.10;79.90;;;;;;4992635;28;20194;-71
2023/10/28 04:04:37;;;;;;;1.80;1.10;;;11.10;79.90;;;;;;4989431;28;20464;-70
2023/10/28 04:07:04;;;;;;;8.10;1.37;;;11.10;79.90;;;;;;4986768;28;20268;-70
2023/10/28 04:09:30;;;;;;;2.20;1.33;;;11.10;79.90;;;;;;4995264;28;20297;-70
2023/10/28 04:11:55;;;;;;;5.03;1.57;;;11.00;79.90;;;;;;4991096;28;20461;-70
2023/10/28 04:14:21;;;;;;;2.17;1.20;;;11.00;79.90;;;;;;4991513;28;20186;-69
2023/10/28 04:16:46;;;;;;;3.20;1.57;;;11.10;79.60;;;;;;4984292;28;20742;-70
2023/10/28 04:19:12;;;;;;;4.63;1.40;;;11.10;79.60;;;;;;4991595;28;20182;-69
2023/10/28 04:21:38;;;;;;;3.37;1.20;;;11.10;79.30;;;;;;4992223;28;20244;-71
2023/10/28 04:24:04;;;;;;;5.63;1.10;;;11.10;79.00;;;;;;4992089;28;20273;-70
2023/10/28 04:26:30;;;;;;;2.37;1.00;;;11.20;78.70;;;;;;4985519;28;20465;-70
2023/10/28 04:29:00;;;;;;;3.70;1.10;;;11.30;78.30;;;;;;4992076;28;21008;-70
2023/10/28 04:31:27;;;;;;;2.17;1.17;;;11.30;77.80;;;;;;4991310;28;20189;-69
2023/10/28 04:33:52;;;;;;;2.83;1.10;;;11.30;77.80;;;;;;4991299;28;20437;-69
2023/10/28 04:36:18;;;;;;;3.23;1.43;;;11.20;77.80;;;;;;4986055;28;20556;-69
2023/10/28 04:38:43;;;;;;;3.10;1.20;;;11.20;78.30;;;;;;4992230;28;20211;-69
2023/10/28 04:41:09;;;;;;;5.13;1.20;;;11.20;77.80;;;;;;4993659;28;20194;-68
2023/10/28 04:43:35;;;;;;;1.93;1.10;;;11.20;77.80;;;;;;4994744;28;20179;-69
2023/10/28 04:46:00;;;;;;;3.60;1.27;;;11.20;77.70;;;;;;4987534;28;20213;-70
2023/10/28 04:48:28;;;;;;;1.80;1.27;;;11.20;77.60;;;;;;4992888;28;20241;-69
2023/10/28 04:50:54;;;;;;;2.97;0.90;;;11.20;77.60;;;;;;4992680;28;20743;-69
2023/10/28 04:53:20;;;;;;;1.73;1.00;;;11.20;77.60;;;;;;4992333;28;20557;-69
2023/10/28 04:55:46;;;;;;;1.50;0.90;;;11.20;77.60;;;;;;4989458;28;20462;-70
2023/10/28 04:58:11;;;;;;;1.93;1.10;;;11.10;77.70;;;;;;4989629;28;20190;-70
2023/10/28 05:00:37;;;;;;;4.93;1.63;;;11.10;77.60;;;;;;4993724;28;20187;-68
2023/10/28 05:03:03;;;;;;;11.53;1.77;;;11.10;77.70;;;;;;4989091;28;20203;-69
2023/10/28 05:05:29;;;;;;;2.40;1.20;;;11.10;77.80;;;;;;4988144;28;20911;-69
2023/10/28 05:07:55;;;;;;;4.07;1.40;;;11.10;77.80;;;;;;4990931;28;20406;-69
2023/10/28 05:10:21;;;;;;;5.90;1.20;;;11.00;78.00;;;;;;4989668;28;20208;-70
2023/10/28 05:12:47;;;;;;;2.30;0.90;;;11.00;77.80;;;;;;4990736;28;20414;-68
2023/10/28 05:15:12;;;;;;;2.53;1.20;;;11.00;77.70;;;;;;4989884;28;20872;-68
2023/10/28 05:17:38;;;;;;;3.20;1.20;;;11.00;77.70;;;;;;4989291;28;20186;-69
2023/10/28 05:20:06;;;;;;;2.63;1.30;;;11.00;77.70;;;;;;4991296;28;20209;-69
2023/10/28 05:22:35;;;;;;;6.40;1.60;;;11.00;77.60;;;;;;4991211;28;20424;-67
2023/10/28 05:25:04;;;;;;;5.80;1.60;;;11.00;77.30;;;;;;4990446;28;20461;-68
2023/10/28 05:27:30;;;;;;;2.37;1.30;;;10.90;77.40;;;;;;4985701;28;20444;-69
2023/10/28 05:29:56;;;;;;;3.20;1.20;;;11.00;77.10;;;;;;4992392;28;20426;-68
2023/10/28 05:32:22;;;;;;;3.27;1.13;;;11.00;77.30;;;;;;4990360;28;21064;-67
2023/10/28 05:34:47;;;;;;;3.80;1.07;;;11.00;77.10;;;;;;4991700;28;20194;-68
2023/10/28 05:37:13;;;;;;;3.43;1.30;;;11.00;77.10;;;;;;4981105;28;20215;-69
2023/10/28 05:39:41;;;;;;;2.30;1.20;;;11.00;77.10;;;;;;4990120;28;20190;-68
2023/10/28 05:42:07;;;;;;;5.17;1.30;;;10.90;77.30;;;;;;4990937;28;20182;-69
2023/10/28 05:44:33;;;;;;;3.03;1.20;;;10.90;77.30;;;;;;4990063;28;20844;-69
2023/10/28 05:47:01;;;;;;;4.07;1.40;;;10.90;77.10;;;;;;4984482;28;20464;-69
2023/10/28 05:49:27;;;;;;;5.93;1.87;;;10.90;77.00;;;;;;4989041;28;20190;-71
2023/10/28 05:51:54;;;;;;;3.70;1.50;;;11.00;77.00;;;;;;4991213;28;20414;-68
2023/10/28 05:54:20;;;;;;;5.17;1.30;;;11.00;77.00;;;;;;4991248;28;20991;-70
2023/10/28 05:56:45;;;;;;;4.97;1.47;;;11.10;76.40;;;;;;4985272;28;20544;-69
2023/10/28 05:59:11;;;;;;;2.57;1.13;;;11.10;76.40;;;;;;4991409;28;20941;-69
2023/10/28 06:01:37;;;;;;;6.47;1.80;;;11.10;76.40;;;;;;4987065;28;20197;-69
2023/10/28 06:04:04;;;;;;;4.03;1.40;;;11.10;76.50;;;;;;4990774;28;20183;-69
2023/10/28 06:06:29;;;;;;;6.30;2.03;;;11.00;76.80;;;;;;4986485;28;20465;-69
2023/10/28 06:08:57;;;;;;;2.33;1.27;;;11.00;77.00;;;;;;4989412;28;20428;-68
2023/10/28 06:11:22;;;;;;;2.40;1.33;;;11.00;77.10;;;;;;4989247;28;20560;-68
2023/10/28 06:13:48;;;;;;;2.80;1.30;;;11.00;77.00;;;;;;4990580;28;20433;-69
2023/10/28 06:16:14;;;;;;;2.90;1.27;;;11.10;76.80;;;;;;4991378;28;20572;-68
2023/10/28 06:18:39;;;;;;;1.83;1.13;;;11.10;76.70;;;;;;4989842;28;20680;-69
2023/10/28 06:21:05;;;;;;;10.07;2.13;;;11.10;76.50;;;;;;4989629;28;20714;-70
2023/10/28 06:23:32;;;;;;;3.37;1.67;;;11.10;76.50;;;;;;4988575;28;20218;-69
2023/10/28 06:25:57;;;;;;;4.70;1.27;;;11.20;76.20;;;;;;4986061;28;21032;-69
2023/10/28 06:28:23;;;;;;;3.10;1.27;;;11.20;76.20;;;;;;4989929;28;20449;-69
2023/10/28 06:30:49;;;;;;;6.23;1.10;;;11.20;76.10;;;;;;4990595;28;20655;-68
2023/10/28 06:33:15;;;;;;;4.27;1.40;;;11.30;76.20;;;;;;4987370;28;20186;-69
2023/10/28 06:35:41;;;;;;;2.93;1.20;;;11.30;76.20;;;;;;4985034;28;20456;-70
2023/10/28 06:38:07;;;;;;;2.23;1.50;;;11.30;76.20;;;;;;4993056;28;20765;-70
2023/10/28 06:40:35;;;;;;;5.23;1.53;;;11.30;76.20;;;;;;4996717;28;20178;-71
2023/10/28 06:43:01;;;;;;;5.00;1.30;;;11.30;76.20;;;;;;4994792;28;20230;-69
2023/10/28 06:45:28;;;;;;;3.83;1.50;;;11.30;76.40;;;;;;4992489;28;20504;-69
2023/10/28 06:47:53;;;;;;;3.10;1.20;;;11.40;76.10;;;;;;4993630;28;20182;-70
2023/10/28 06:50:22;;;;;;;2.57;1.17;;;11.30;76.10;;;;;;4995505;28;20452;-69
2023/10/28 06:52:50;;;;;;;6.03;1.23;;;11.40;75.90;;;;;;4995587;28;20179;-70
2023/10/28 06:55:18;;;;;;;2.13;1.30;;;11.40;75.80;;;;;;4986889;28;20497;-69
2023/10/28 06:57:44;;;;;;;3.77;1.00;;;11.40;75.80;;;;;;4988584;28;20460;-70
2023/10/28 07:00:14;;;;;;;2.50;1.17;;;11.40;75.80;;;;;;4994357;28;20475;-71
2023/10/28 07:02:40;;;;;;;6.80;1.70;;;11.40;75.50;;;;;;4993033;28;20958;-69
2023/10/28 07:05:08;;;;;;;5.23;1.60;;;11.40;75.70;;;;;;4993382;28;20474;-70
2023/10/28 07:07:35;;;;;;;4.60;1.40;;;11.40;75.70;;;;;;4987457;28;20457;-69
2023/10/28 07:10:00;;;;;;;6.57;1.70;;;11.40;75.80;;;;;;4991692;28;20410;-70
2023/10/28 07:12:28;;;;;;;2.63;1.17;;;11.50;75.80;;;;;;4988925;28;20509;-69
2023/10/28 07:14:54;;;;;;;3.43;1.13;;;11.50;75.50;;;;;;4993700;28;20241;-69
2023/10/28 07:17:20;;;;;;;5.97;1.53;;;11.60;75.50;;;;;;4987622;28;20568;-69
2023/10/28 07:19:45;;;;;;;3.83;1.40;;;11.60;75.10;;;;;;4990043;28;20513;-70
2023/10/28 07:22:11;;;;;;;3.77;1.40;;;11.60;75.10;;;;;;4990112;28;20203;-70
2023/10/28 07:24:36;;;;;;;4.97;1.53;;;11.60;75.10;;;;;;4993508;28;20212;-70
2023/10/28 07:27:04;;;;;;;6.83;1.50;;;11.70;75.10;;;;;;4989185;28;20213;-71
2023/10/28 07:29:30;;;;;;;1.30;1.20;;;11.70;74.90;;;;;;4986554;28;20202;-70
2023/10/28 07:31:57;;;;;;;2.73;1.70;;;11.80;74.90;;;;;;4994188;28;20428;-69
2023/10/28 07:34:22;;;;;;;3.47;1.33;;;11.80;74.90;;;;;;4994230;28;20440;-70
2023/10/28 07:36:48;;;;;;;5.80;1.70;;;11.80;74.60;;;;;;4990731;28;20473;-70
2023/10/28 07:39:13;;;;;;;2.27;1.20;;;11.80;74.60;;;;;;4992453;28;20536;-70
2023/10/28 07:41:39;;;;;;;2.30;1.30;;;11.80;74.80;;;;;;4993410;28;20262;-70
2023/10/28 07:44:04;;;;;;;2.90;1.30;;;11.80;74.60;;;;;;4993402;28;20225;-70
2023/10/28 07:46:30;;;;;;;4.80;1.50;;;11.80;74.90;;;;;;4991121;28;20206;-69
2023/10/28 07:48:56;;;;;;;7.80;1.43;;;11.80;74.60;;;;;;4990089;28;20237;-70
2023/10/28 07:51:22;;;;;;;9.80;1.63;;;11.90;74.60;;;;;;4990019;28;20429;-70
2023/10/28 07:53:52;;;;;;;4.00;1.73;;;11.90;74.60;;;;;;4993755;28;20500;-70
2023/10/28 07:56:18;;;;;;;3.00;1.50;;;11.90;74.80;;;;;;4984539;28;20481;-69
2023/10/28 07:58:44;;;;;;;5.40;1.57;;;12.00;74.60;;;;;;4992655;28;20421;-71
2023/10/28 08:01:18;;;;;;;2.63;1.20;;;11.90;74.60;;;;;;4991779;28;20786;-70
2023/10/28 08:03:47;;;;;;;2.83;1.63;;;12.00;74.80;;;;;;4988927;28;20877;-70
2023/10/28 08:06:13;;;;;;;1.80;1.10;;;12.00;74.60;;;;;;4977081;28;20478;-70
2023/10/28 08:08:40;;;;;;;4.27;1.73;;;12.00;74.50;;;;;;4992644;28;20438;-71
2023/10/28 08:11:06;;;;;;;6.13;1.43;;;12.00;74.60;;;;;;4994879;28;20469;-70
2023/10/28 08:13:37;;;;;;;6.00;1.53;;;12.10;74.50;;;;;;4994773;28;20465;-69
2023/10/28 08:16:04;;;;;;;5.13;1.70;;;12.20;74.00;;;;;;4986595;28;20513;-69
2023/10/28 08:18:31;;;;;;;2.47;1.23;;;12.20;73.70;;;;;;4992236;28;20445;-69
2023/10/28 08:20:57;;;;;;;2.80;1.50;;;12.30;73.50;;;;;;4988238;28;20504;-70
2023/10/28 08:23:23;;;;;;;2.83;1.30;;;12.50;73.50;;;;;;4987138;28;20613;-70
2023/10/28 08:25:49;;;;;;;2.20;1.23;;;12.50;72.70;;;;;;4986996;28;20490;-69
2023/10/28 08:28:15;;;;;;;5.60;1.40;;;12.60;72.70;;;;;;4992761;28;20191;-69
2023/10/28 08:30:41;;;;;;;4.17;1.50;;;12.70;72.30;;;;;;4989515;28;20461;-69
2023/10/28 08:33:07;;;;;;;4.53;1.50;;;12.80;72.10;;;;;;4993080;28;20485;-71
2023/10/28 08:35:33;;;;;;;5.80;1.30;;;12.90;71.70;;;;;;4989831;28;20269;-72
2023/10/28 08:38:05;;;;;;;3.03;1.60;;;13.00;71.30;;;;;;4992740;28;20269;-68
2023/10/28 08:40:31;;;;;;;1.90;1.23;;;13.10;70.50;;;;;;4996031;28;20409;-69
2023/10/28 08:42:58;;;;;;;7.63;1.90;;;13.30;70.40;;;;;;4996378;28;20418;-70
2023/10/28 08:45:26;;;;;;;4.13;1.37;;;13.40;70.20;;;;;;4993730;28;20596;-70
2023/10/28 08:47:53;;;;;;;6.43;1.50;;;13.50;69.90;;;;;;4991746;28;20446;-70
2023/10/28 08:50:24;;;;;;;5.27;1.43;;;13.50;69.90;;;;;;4992558;28;20429;-70
2023/10/28 08:52:56;;;;;;;2.50;1.40;;;13.50;69.80;;;;;;4991213;28;20453;-68
2023/10/28 08:55:24;;;;;;;4.33;1.30;;;13.50;69.70;;;;;;4990056;28;20441;-70
2023/10/28 08:57:51;;;;;;;3.60;1.50;;;13.50;69.90;;;;;;4991103;28;20430;-70
2023/10/28 09:00:19;;;;;;;4.90;1.67;;;13.50;69.40;;;;;;4991441;28;20437;-70
2023/10/28 09:02:47;;;;;;;2.50;1.03;;;13.50;69.20;;;;;;4985038;28;20816;-69
2023/10/28 09:05:14;;;;;;;3.93;1.60;;;13.50;69.20;;;;;;4989977;28;21012;-69
2023/10/28 09:07:40;;;;;;;3.63;1.53;;;13.50;69.20;;;;;;4989513;28;20522;-68
2023/10/28 09:10:06;;;;;;;5.90;1.30;;;13.50;69.40;;;;;;4995414;28;20497;-69
2023/10/28 09:12:34;;;;;;;4.07;1.60;;;13.60;69.20;;;;;;4990398;28;20190;-69
2023/10/28 09:15:00;;;;;;;1.97;1.40;;;13.60;69.20;;;;;;4987226;28;20422;-71
2023/10/28 09:17:26;;;;;;;3.00;1.30;;;13.70;69.10;;;;;;4983633;28;20640;-70
2023/10/28 09:19:52;;;;;;;9.10;1.83;;;13.70;68.60;;;;;;4991098;28;20593;-69
2023/10/28 09:22:17;;;;;;;2.73;1.20;;;13.80;68.00;;;;;;4991266;28;20226;-69
2023/10/28 09:24:46;;;;;;;1.93;1.27;;;13.90;68.50;;;;;;4991111;28;20555;-69
2023/10/28 09:27:13;;;;;;;3.63;1.33;;;13.90;68.20;;;;;;4982636;28;20691;-69
2023/10/28 09:29:41;;;;;;;3.70;1.20;;;13.90;68.20;;;;;;4989164;28;20432;-69
2023/10/28 09:32:08;;;;;;;7.27;1.50;;;13.90;68.00;;;;;;4988833;28;20589;-69
2023/10/28 09:34:38;;;;;;;3.73;1.50;;;13.90;68.20;;;;;;4991049;28;20902;-69
2023/10/28 09:37:04;;;;;;;6.30;2.07;;;13.90;68.30;;;;;;4983391;28;20454;-68
2023/10/28 09:39:33;;;;;;;4.00;1.70;;;13.90;68.60;;;;;;4993046;28;20640;-70
2023/10/28 09:41:59;;;;;;;4.60;1.63;;;13.90;67.90;;;;;;4991286;28;20449;-70
2023/10/28 09:44:26;;;;;;;2.90;1.10;;;14.00;67.70;;;;;;4991346;28;20891;-71
2023/10/28 09:47:00;;;;;;;5.90;1.50;;;14.00;67.70;;;;;;4981344;28;20457;-70
2023/10/28 09:49:29;;;;;;;3.00;1.53;;;14.00;67.70;;;;;;4991047;28;21126;-71
2023/10/28 09:52:05;;;;;;;2.73;1.30;;;14.10;67.50;;;;;;4989192;28;20433;-69
2023/10/28 09:54:35;;;;;;;2.73;1.47;;;14.20;67.30;;;;;;4991409;28;20422;-69
2023/10/28 09:57:01;;;;;;;3.53;1.53;;;14.40;67.20;;;;;;4986067;28;20485;-69
2023/10/28 09:59:31;;;;;;;5.43;2.10;;;14.50;67.00;;;;;;4991045;28;20433;-70
2023/10/28 10:02:03;;;;;;;4.20;1.50;;;14.40;66.70;;;;;;4991373;28;20441;-69
2023/10/28 10:04:41;;;;;;;2.40;1.33;;;14.50;67.00;;;;;;4988481;28;20462;-69
2023/10/28 10:07:09;;;;;;;5.83;1.80;;;14.50;66.60;;;;;;4985822;28;20469;-70
2023/10/28 10:09:41;;;;;;;10.63;2.10;;;14.60;66.40;;;;;;4992171;28;20430;-70
2023/10/28 10:12:07;;;;;;;6.57;1.53;;;14.70;66.00;;;;;;4987311;28;20419;-68
2023/10/28 10:14:35;;;;;;;5.77;1.70;;;14.80;66.30;;;;;;4989824;28;20618;-70
2023/10/28 10:17:22;;;;;;;4.33;1.47;;;15.00;66.10;;;;;;4981714;28;20211;-69
2023/10/28 10:19:49;;;;;;;5.13;1.63;;;15.20;65.80;;;;;;4986549;28;20430;-69
2023/10/28 10:22:22;;;;;;;4.33;1.30;;;15.40;65.60;;;;;;4990593;28;20792;-70
2023/10/28 10:24:49;;;;;;;2.90;1.43;;;15.60;65.10;;;;;;4990138;28;20497;-71
2023/10/28 10:27:15;;;;;;;3.73;1.33;;;15.60;65.00;;;;;;4982895;28;20467;-68
2023/10/28 10:29:41;;;;;;;3.80;1.70;;;15.60;65.30;;;;;;4989284;28;20430;-70
2023/10/28 10:32:17;;;;;;;4.30;1.47;;;15.70;65.10;;;;;;4989065;28;20250;-68
2023/10/28 10:34:45;;;;;;;4.07;1.70;;;15.60;65.00;;;;;;4987089;28;20442;-70
2023/10/28 10:37:24;;;;;;;3.50;1.50;;;15.50;65.30;;;;;;4982513;28;20457;-70
2023/10/28 10:39:51;;;;;;;3.73;1.57;;;15.60;65.30;;;;;;4989219;28;20461;-69
2023/10/28 10:42:17;;;;;;;4.00;1.50;;;15.70;65.60;;;;;;4987893;28;20506;-70
2023/10/28 10:44:43;;;;;;;6.90;1.50;;;15.60;65.10;;;;;;4990840;28;20593;-68
2023/10/28 10:47:09;;;;;;;5.03;1.43;;;15.50;65.10;;;;;;4982648;28;21009;-69
2023/10/28 10:49:38;;;;;;;5.07;1.53;;;15.60;65.30;;;;;;4989956;28;20880;-70
2023/10/28 10:52:05;;;;;;;5.17;1.50;;;16.00;65.10;;;;;;4990638;28;20426;-70
2023/10/28 10:54:33;;;;;;;5.07;1.60;;;16.40;64.80;;;;;;4990220;28;20458;-70
2023/10/28 10:56:59;;;;;;;5.10;1.87;;;16.60;64.40;;;;;;4982797;28;20468;-68
2023/10/28 10:59:31;;;;;;;6.90;1.63;;;16.60;64.50;;;;;;4989977;28;20503;-68
2023/10/28 11:01:57;;;;;;;6.23;2.17;;;16.60;63.70;;;;;;4990434;28;21033;-69
2023/10/28 11:04:24;;;;;;;15.63;2.20;;;16.20;64.70;;;;;;4989715;28;20471;-69
2023/10/28 11:06:51;;;;;;;8.73;1.90;;;15.90;65.00;;;;;;4980639;28;20466;-70
2023/10/28 11:09:17;;;;;;;5.97;1.57;;;15.80;65.30;;;;;;4989362;28;20449;-71
2023/10/28 11:11:43;;;;;;;4.70;1.80;;;15.70;65.40;;;;;;4990218;28;20437;-69
2023/10/28 11:14:09;;;;;;;6.20;1.67;;;15.50;65.80;;;;;;4990891;28;20458;-70
2023/10/28 11:16:35;;;;;;;13.77;2.30;;;15.40;66.30;;;;;;4985722;28;20981;-69
2023/10/28 11:19:05;;;;;;;2.90;1.90;;;15.30;66.60;;;;;;4986954;28;20420;-70
2023/10/28 11:21:31;;;;;;;4.70;1.70;;;15.20;67.00;;;;;;4990013;28;20419;-68
2023/10/28 11:23:57;;;;;;;4.33;1.80;;;15.10;66.70;;;;;;4993610;28;20510;-69
2023/10/28 11:26:24;;;;;;;6.03;1.53;;;15.10;67.00;;;;;;4989704;28;20521;-71
2023/10/28 11:28:50;;;;;;;6.47;1.60;;;15.10;67.20;;;;;;4991424;28;20453;-69
2023/10/28 11:31:20;;;;;;;5.63;1.63;;;15.10;67.00;;;;;;4985813;28;20438;-69
2023/10/28 11:33:45;;;;;;;3.50;1.77;;;15.10;67.00;;;;;;4993814;28;20191;-69
2023/10/28 11:36:11;;;;;;;2.80;1.20;;;15.10;67.20;;;;;;4982476;28;20458;-71
2023/10/28 11:38:37;;;;;;;5.23;1.83;;;15.00;67.00;;;;;;4990772;28;20418;-69
2023/10/28 11:41:05;;;;;;;2.13;1.57;;;15.00;67.30;;;;;;4991447;28;20421;-71
2023/10/28 11:43:30;;;;;;;8.20;1.90;;;15.00;67.30;;;;;;4990623;28;20424;-69
2023/10/28 11:45:56;;;;;;;3.90;1.90;;;15.10;67.30;;;;;;4984318;28;20486;-69
2023/10/28 11:48:22;;;;;;;4.47;1.80;;;15.10;67.30;;;;;;4984923;28;20195;-69
2023/10/28 11:50:48;;;;;;;8.60;2.07;;;15.20;67.50;;;;;;4990784;28;20242;-70
2023/10/28 11:53:17;;;;;;;5.53;2.07;;;15.40;67.20;;;;;;4990364;28;20182;-70
2023/10/28 11:55:45;;;;;;;7.37;2.23;;;15.40;66.60;;;;;;4985229;28;20525;-70
2023/10/28 11:58:10;;;;;;;5.63;1.50;;;15.30;66.90;;;;;;4987612;28;20435;-69
2023/10/28 12:00:36;;;;;;;6.63;1.80;;;15.20;66.70;;;;;;4988350;28;20993;-69
2023/10/28 12:03:04;;;;;;;6.83;1.83;;;15.10;67.20;;;;;;4990332;28;20208;-69
2023/10/28 12:05:33;;;;;;;6.73;2.17;;;15.10;67.30;;;;;;4984429;28;20210;-69
2023/10/28 12:07:59;;;;;;;2.90;1.50;;;15.20;67.30;;;;;;4986738;28;20436;-69
2023/10/28 12:10:25;;;;;;;4.13;1.73;;;15.10;67.30;;;;;;4987251;28;21134;-69
2023/10/28 12:12:51;;;;;;;6.53;2.43;;;15.10;67.90;;;;;;4991159;28;20423;-71
2023/10/28 12:15:16;;;;;;;3.40;1.70;;;15.00;68.50;;;;;;4988655;28;20497;-69
2023/10/28 12:17:44;;;;;;;5.00;2.10;;;14.80;69.20;;;;;;4986111;28;20185;-70
2023/10/28 12:20:14;;;;;;;9.63;2.57;;;14.60;69.10;;;;;;4989548;28;20192;-70
2023/10/28 12:22:43;;;;;;;6.83;1.90;;;14.60;69.20;;;;;;4990261;28;20511;-69
2023/10/28 12:25:13;;;;;;;4.00;1.70;;;14.60;69.20;;;;;;4992662;28;20470;-69
2023/10/28 12:27:39;;;;;;;5.77;2.00;;;14.70;69.20;;;;;;4989814;28;20424;-68
2023/10/28 12:30:08;;;;;;;4.67;2.10;;;14.90;69.40;;;;;;4991253;28;20528;-69
2023/10/28 12:32:33;;;;;;;11.13;2.20;;;15.00;68.20;;;;;;4991683;28;20180;-69
2023/10/28 12:34:59;;;;;;;10.10;2.57;;;15.00;68.80;;;;;;4989776;28;20618;-70
2023/10/28 12:37:26;;;;;;;5.83;2.00;;;15.10;68.50;;;;;;4989893;28;20217;-68
2023/10/28 12:39:52;;;;;;;6.50;2.00;;;15.30;68.50;;;;;;4992252;28;20203;-70
2023/10/28 12:42:18;;;;;;;8.47;2.40;;;15.40;67.30;;;;;;4990489;28;20432;-69